createdAt,value
2023-04-27T00:02:38.099Z,2.83
2023-04-27T00:05:40.495Z,2.79
2023-04-27T00:08:42.591Z,2.86
2023-04-27T00:11:44.772Z,2.86
2023-04-27T00:14:46.884Z,2.88
2023-04-27T00:17:49.090Z,2.90
2023-04-27T00:20:51.230Z,2.83
2023-04-27T00:23:55.864Z,2.83
2023-04-27T00:26:57.963Z,2.83
2023-04-27T00:30:00.157Z,2.80
2023-04-27T00:33:03.138Z,2.91
2023-04-27T00:36:06.039Z,2.84
2023-04-27T00:39:09.303Z,2.84
2023-04-27T00:42:15.707Z,2.82
2023-04-27T00:45:17.934Z,2.81
2023-04-27T00:48:20.502Z,2.80
2023-04-27T00:51:27.936Z,2.80
2023-04-27T00:54:30.810Z,2.80
2023-04-27T00:57:34.347Z,2.80
2023-04-27T01:05:11.152Z,2.62
2023-04-27T01:08:13.592Z,2.79
2023-04-27T01:11:16.284Z,2.76
2023-04-27T01:14:18.420Z,2.73
2023-04-27T01:17:20.932Z,2.69
2023-04-27T01:20:23.252Z,2.63
2023-04-27T01:23:25.275Z,2.58
2023-04-27T01:26:27.383Z,2.49
2023-04-27T01:29:29.519Z,2.53
2023-04-27T01:32:31.678Z,2.49
2023-04-27T01:35:33.778Z,2.41
2023-04-27T01:38:36.661Z,2.30
2023-04-27T01:41:38.750Z,2.17
2023-04-27T01:44:41.056Z,2.15
2023-04-27T01:47:44.481Z,2.10
2023-04-27T01:50:46.835Z,2.01
2023-04-27T01:53:48.949Z,2.00
2023-04-27T01:56:51.856Z,1.92
2023-04-27T01:59:53.915Z,1.85
2023-04-27T02:03:00.872Z,1.80
2023-04-27T02:06:03.801Z,1.74
2023-04-27T02:09:05.890Z,1.73
2023-04-27T02:12:08.032Z,1.69
2023-04-27T02:15:10.643Z,1.65
2023-04-27T02:18:15.829Z,1.69
2023-04-27T02:21:17.925Z,1.54
2023-04-27T02:24:20.102Z,1.49
2023-04-27T02:27:22.127Z,1.44
2023-04-27T02:30:24.666Z,1.34
2023-04-27T02:33:27.271Z,1.26
2023-04-27T02:36:29.403Z,1.18
2023-04-27T02:39:31.479Z,1.14
2023-04-27T02:42:33.632Z,1.07
2023-04-27T02:45:38.733Z,0.99
2023-04-27T02:48:41.314Z,0.95
2023-04-27T02:51:43.346Z,0.92
2023-04-27T02:54:45.731Z,0.76
2023-04-27T02:57:47.875Z,0.83
2023-04-27T03:00:55.442Z,0.78
2023-04-27T03:03:57.890Z,0.72
2023-04-27T03:07:00.058Z,0.69
2023-04-27T03:10:02.168Z,0.72
2023-04-27T03:13:06.496Z,0.72
2023-04-27T03:16:11.928Z,0.69
2023-04-27T03:19:14.927Z,0.68
2023-04-27T03:22:17.268Z,0.70
2023-04-27T03:25:19.489Z,0.75
2023-04-27T03:28:21.509Z,0.79
2023-04-27T03:31:23.749Z,0.81
2023-04-27T03:34:25.825Z,0.80
2023-04-27T03:37:27.935Z,0.73
2023-04-27T03:40:32.284Z,0.63
2023-04-27T03:43:34.315Z,0.57
2023-04-27T03:46:38.175Z,0.55
2023-04-27T03:49:40.381Z,0.55
2023-04-27T03:52:43.186Z,0.39
2023-04-27T03:55:45.818Z,0.59
2023-04-27T03:58:47.871Z,0.56
2023-04-27T04:01:54.539Z,0.58
2023-04-27T04:04:57.037Z,0.58
2023-04-27T04:07:59.237Z,0.58
2023-04-27T04:11:03.578Z,0.63
2023-04-27T04:14:06.078Z,0.70
2023-04-27T04:17:11.192Z,0.83
2023-04-27T04:20:16.231Z,0.89
2023-04-27T04:23:18.285Z,0.93
2023-04-27T04:26:20.866Z,1.05
2023-04-27T04:29:23.786Z,1.11
2023-04-27T04:32:31.596Z,0.92
2023-04-27T04:35:33.855Z,1.25
2023-04-27T04:38:36.083Z,1.39
2023-04-27T04:41:38.571Z,1.51
2023-04-27T04:44:42.543Z,1.60
2023-04-27T04:47:45.223Z,1.64
2023-04-27T04:50:47.995Z,1.79
2023-04-27T04:53:50.309Z,1.89
2023-04-27T04:56:52.365Z,1.96
2023-04-27T04:59:54.380Z,2.09
2023-04-27T05:02:57.051Z,2.19
2023-04-27T05:05:59.165Z,2.26
2023-04-27T05:09:01.568Z,2.30
2023-04-27T05:12:04.171Z,2.33
2023-04-27T05:15:06.840Z,2.39
2023-04-27T05:18:09.028Z,2.47
2023-04-27T05:21:15.623Z,2.52
2023-04-27T05:24:17.711Z,2.59
2023-04-27T05:27:19.866Z,2.66
2023-04-27T05:30:22.088Z,2.73
2023-04-27T05:33:24.142Z,2.81
2023-04-27T05:36:28.756Z,2.94
2023-04-27T05:39:30.809Z,3.10
2023-04-27T05:42:32.871Z,3.31
2023-04-27T05:45:39.713Z,3.61
2023-04-27T05:48:42.285Z,3.87
2023-04-27T05:51:44.417Z,4.19
2023-04-27T05:54:50.218Z,4.44
2023-04-27T05:58:06.592Z,4.68
2023-04-27T06:01:09.526Z,4.91
2023-04-27T06:04:11.797Z,5.10
2023-04-27T06:07:16.347Z,5.33
2023-04-27T06:10:18.468Z,5.54
2023-04-27T06:13:21.240Z,5.52
2023-04-27T06:16:23.931Z,5.83
2023-04-27T06:19:27.069Z,6.20
2023-04-27T06:22:29.189Z,6.40
2023-04-27T06:25:31.659Z,6.61
2023-04-27T06:28:34.201Z,6.77
2023-04-27T06:31:36.741Z,6.93
2023-04-27T06:34:38.992Z,7.12
2023-04-27T06:37:41.595Z,7.33
2023-04-27T06:40:43.607Z,7.57
2023-04-27T06:43:45.635Z,7.72
2023-04-27T06:46:47.769Z,7.85
2023-04-27T06:49:50.129Z,8.02
2023-04-27T06:52:53.089Z,8.22
2023-04-27T06:55:59.620Z,8.48
2023-04-27T06:59:02.201Z,8.59
2023-04-27T07:02:04.167Z,8.74
2023-04-27T07:05:06.288Z,8.87
2023-04-27T07:08:09.113Z,8.93
2023-04-27T07:11:11.836Z,8.97
2023-04-27T07:14:14.010Z,9.09
2023-04-27T07:17:16.027Z,8.97
2023-04-27T07:20:18.870Z,8.98
2023-04-27T07:23:20.909Z,9.01
2023-04-27T07:26:25.304Z,9.02
2023-04-27T07:29:28.634Z,9.15
2023-04-27T07:32:31.278Z,9.27
2023-04-27T07:35:33.648Z,9.35
2023-04-27T07:38:35.815Z,9.26
2023-04-27T07:41:38.227Z,9.25
2023-04-27T07:44:40.957Z,9.52
2023-04-27T07:47:44.283Z,9.40
2023-04-27T07:50:46.790Z,9.53
2023-04-27T07:53:48.814Z,9.65
2023-04-27T07:56:51.049Z,9.87
2023-04-27T07:59:53.159Z,9.82
2023-04-27T08:02:56.025Z,9.91
2023-04-27T08:05:58.667Z,10.03
2023-04-27T08:09:02.224Z,10.06
2023-04-27T08:12:04.441Z,10.23
2023-04-27T08:15:07.726Z,10.29
2023-04-27T08:18:09.777Z,10.31
2023-04-27T08:21:12.123Z,10.46
2023-04-27T08:24:14.182Z,10.49
2023-04-27T08:27:16.866Z,10.52
2023-04-27T08:30:18.900Z,10.68
2023-04-27T08:33:21.155Z,10.61
2023-04-27T08:36:24.603Z,10.37
2023-04-27T08:39:26.653Z,10.47
2023-04-27T08:42:31.021Z,10.59
2023-04-27T08:45:33.153Z,10.92
2023-04-27T08:48:35.719Z,10.95
2023-04-27T08:51:37.746Z,11.00
2023-04-27T08:54:39.770Z,10.99
2023-04-27T08:57:41.857Z,10.98
2023-04-27T09:00:46.270Z,10.92
2023-04-27T09:03:48.579Z,10.92
2023-04-27T09:06:51.112Z,10.98
2023-04-27T09:10:04.021Z,11.25
2023-04-27T09:13:06.214Z,11.42
2023-04-27T09:16:09.262Z,11.71
2023-04-27T09:19:12.222Z,11.89
2023-04-27T09:22:15.780Z,12.16
2023-04-27T09:25:32.471Z,12.26
2023-04-27T09:28:38.280Z,12.04
2023-04-27T09:31:40.593Z,12.28
2023-04-27T09:34:42.828Z,12.22
2023-04-27T09:37:44.972Z,12.24
2023-04-27T09:40:47.395Z,12.04
2023-04-27T09:43:49.431Z,11.93
2023-04-27T09:46:53.253Z,11.98
2023-04-27T09:49:56.051Z,11.71
2023-04-27T09:52:58.687Z,11.83
2023-04-27T09:56:16.854Z,11.92
2023-04-27T09:59:30.879Z,11.63
2023-04-27T10:02:53.203Z,11.68
2023-04-27T10:06:26.946Z,11.84
2023-04-27T10:09:36.744Z,11.88
2023-04-27T10:12:38.758Z,12.09
2023-04-27T10:15:41.116Z,12.17
2023-04-27T10:18:57.127Z,12.26
2023-04-27T10:22:03.752Z,12.43
2023-04-27T10:25:22.234Z,12.19
2023-04-27T10:28:24.413Z,12.20
2023-04-27T10:31:30.036Z,11.89
2023-04-27T10:34:36.610Z,11.85
2023-04-27T10:37:41.561Z,11.87
2023-04-27T10:41:05.680Z,12.03
2023-04-27T10:44:18.135Z,12.44
2023-04-27T10:47:20.271Z,12.41
2023-04-27T10:50:23.724Z,12.45
2023-04-27T10:53:27.244Z,12.60
2023-04-27T10:56:29.421Z,12.69
2023-04-27T10:59:31.485Z,12.78
2023-04-27T11:02:33.626Z,12.95
2023-04-27T11:05:36.293Z,13.01
2023-04-27T11:08:45.774Z,13.18
2023-04-27T11:11:48.316Z,12.72
2023-04-27T11:14:50.518Z,12.66
2023-04-27T11:17:52.546Z,12.87
2023-04-27T11:21:12.971Z,12.79
2023-04-27T11:24:15.696Z,12.64
2023-04-27T11:27:18.491Z,12.62
2023-04-27T11:30:24.473Z,12.38
2023-04-27T11:33:27.858Z,12.70
2023-04-27T11:36:30.030Z,12.78
2023-04-27T11:39:37.836Z,12.83
2023-04-27T11:42:43.644Z,12.93
2023-04-27T11:45:45.867Z,13.11
2023-04-27T11:48:47.879Z,12.99
2023-04-27T11:51:50.441Z,12.80
2023-04-27T11:54:56.753Z,12.88
2023-04-27T12:16:25.794Z,12.85
2023-04-27T12:19:28.217Z,12.83
2023-04-27T12:22:30.390Z,12.81
2023-04-27T12:25:32.600Z,12.68
2023-04-27T12:28:34.837Z,12.62
2023-04-27T12:31:37.140Z,12.57
2023-04-27T12:34:39.739Z,12.52
2023-04-27T12:37:42.568Z,12.65
2023-04-27T12:40:44.648Z,12.67
2023-04-27T12:43:47.644Z,13.00
2023-04-27T12:46:50.158Z,13.10
2023-04-27T12:49:52.396Z,13.31
2023-04-27T12:52:54.820Z,12.77
2023-04-27T12:55:56.965Z,12.95
2023-04-27T12:59:02.825Z,12.77
2023-04-27T13:02:07.881Z,12.64
2023-04-27T13:05:12.064Z,12.61
2023-04-27T13:08:14.179Z,12.75
2023-04-27T13:11:16.883Z,12.80
2023-04-27T13:14:19.015Z,12.93
2023-04-27T13:17:21.304Z,13.01
2023-04-27T13:20:23.410Z,12.91
2023-04-27T13:23:27.064Z,12.98
2023-04-27T13:26:29.340Z,13.00
2023-04-27T13:29:31.445Z,13.08
2023-04-27T13:41:43.133Z,13.80
2023-04-27T13:44:45.102Z,14.08
2023-04-27T13:47:47.261Z,14.17
2023-04-27T13:50:49.346Z,13.80
2023-04-27T13:53:51.561Z,13.77
2023-04-27T13:56:53.521Z,13.82
2023-04-27T13:59:58.460Z,13.97
2023-04-27T14:03:01.859Z,13.73
2023-04-27T14:06:04.289Z,13.53
2023-04-27T14:09:06.431Z,13.36
2023-04-27T14:12:09.243Z,13.56
2023-04-27T14:15:14.614Z,13.75
2023-04-27T14:18:17.488Z,13.74
2023-04-27T14:21:24.101Z,13.75
2023-04-27T14:24:26.633Z,13.81
2023-04-27T14:27:28.670Z,13.81
2023-04-27T14:30:32.352Z,13.75
2023-04-27T14:33:34.350Z,13.73
2023-04-27T14:36:36.334Z,13.50
2023-04-27T14:39:38.318Z,13.36
2023-04-27T14:42:40.380Z,13.26
2023-04-27T14:45:52.362Z,13.20
2023-04-27T14:48:57.594Z,13.38
2023-04-27T14:52:03.416Z,13.47
2023-04-27T14:55:06.940Z,13.47
2023-04-27T14:58:08.936Z,13.47
2023-04-27T15:01:11.058Z,13.78
2023-04-27T15:04:13.277Z,13.74
2023-04-27T15:07:15.498Z,13.58
2023-04-27T15:10:17.547Z,13.45
2023-04-27T15:13:19.631Z,13.57
2023-04-27T15:16:21.557Z,13.55
2023-04-27T15:19:23.630Z,13.35
2023-04-27T15:22:27.987Z,13.39
2023-04-27T15:25:30.058Z,13.26
2023-04-27T15:28:33.901Z,13.33
2023-04-27T15:31:36.265Z,13.25
2023-04-27T15:34:38.781Z,13.18
2023-04-27T15:37:41.149Z,13.02
2023-04-27T15:40:43.174Z,12.97
2023-04-27T15:43:45.236Z,13.03
2023-04-27T15:46:47.266Z,13.12
2023-04-27T15:49:57.048Z,13.00
2023-04-27T15:52:59.782Z,12.84
2023-04-27T15:56:01.963Z,12.96
2023-04-27T15:59:04.522Z,12.78
2023-04-27T16:02:06.689Z,12.77
2023-04-27T16:05:10.035Z,12.92
2023-04-27T16:08:12.032Z,12.71
2023-04-27T16:11:14.591Z,12.57
2023-04-27T16:14:16.764Z,12.52
2023-04-27T16:17:18.869Z,12.24
2023-04-27T16:20:21.376Z,12.18
2023-04-27T16:23:24.610Z,12.31
2023-04-27T16:26:28.212Z,12.00
2023-04-27T16:29:30.453Z,12.27
2023-04-27T16:32:34.506Z,12.02
2023-04-27T16:35:37.510Z,12.18
2023-04-27T16:38:39.589Z,12.25
2023-04-27T16:41:41.619Z,12.24
2023-04-27T16:44:43.568Z,12.06
2023-04-27T16:47:45.991Z,11.69
2023-04-27T16:50:48.002Z,11.57
2023-04-27T16:53:50.869Z,11.46
2023-04-27T16:56:55.025Z,11.74
2023-04-27T16:59:57.432Z,11.40
2023-04-27T17:02:59.658Z,11.23
2023-04-27T17:06:01.793Z,11.05
2023-04-27T17:09:03.865Z,10.94
2023-04-27T17:12:11.190Z,10.83
2023-04-27T17:15:13.620Z,10.73
2023-04-27T17:18:15.708Z,10.59
2023-04-27T17:21:18.063Z,10.47
2023-04-27T17:24:20.236Z,10.35
2023-04-27T17:27:22.905Z,9.93
2023-04-27T17:30:25.098Z,9.90
2023-04-27T17:33:27.078Z,9.68
2023-04-27T17:36:29.005Z,9.55
2023-04-27T17:39:31.027Z,9.42
2023-04-27T17:42:33.106Z,9.25
2023-04-27T17:45:35.592Z,9.04
2023-04-27T17:48:38.162Z,8.91
2023-04-27T17:51:40.188Z,8.72
2023-04-27T17:54:43.217Z,8.52
2023-04-27T17:57:45.368Z,8.31
2023-04-27T18:00:47.692Z,8.14
2023-04-27T18:03:50.725Z,7.71
2023-04-27T18:06:53.033Z,7.70
2023-04-27T18:09:57.596Z,7.56
2023-04-27T18:12:59.886Z,7.41
2023-04-27T18:16:02.495Z,7.30
2023-04-27T18:19:05.983Z,7.15
2023-04-27T18:22:07.934Z,7.01
2023-04-27T18:25:10.587Z,6.78
2023-04-27T18:28:12.785Z,6.62
2023-04-27T18:31:19.562Z,6.51
2023-04-27T18:34:22.051Z,6.33
2023-04-27T18:37:24.439Z,6.17
2023-04-27T18:40:27.249Z,6.04
2023-04-27T18:43:29.532Z,5.94
2023-04-27T18:46:32.645Z,5.84
2023-04-27T18:49:34.727Z,5.72
2023-04-27T18:52:36.914Z,5.66
2023-04-27T18:55:39.706Z,5.55
2023-04-27T18:58:41.783Z,5.45
2023-04-27T19:01:44.432Z,5.36
2023-04-27T19:04:52.893Z,5.30
2023-04-27T19:08:00.689Z,5.22
2023-04-27T19:11:02.699Z,5.14
2023-04-27T19:14:04.820Z,5.06
2023-04-27T19:17:07.890Z,5.00
2023-04-27T19:20:13.042Z,4.88
2023-04-27T19:23:17.000Z,4.75
2023-04-27T19:26:19.608Z,4.70
2023-04-27T19:29:24.360Z,4.68
2023-04-27T19:32:27.822Z,4.59
2023-04-27T19:35:30.629Z,4.54
2023-04-27T19:38:32.878Z,4.49
2023-04-27T19:41:35.691Z,4.46
2023-04-27T19:44:37.839Z,4.38
2023-04-27T19:47:40.279Z,4.31
2023-04-27T19:50:43.416Z,4.25
2023-04-27T19:53:45.567Z,4.21
2023-04-27T19:56:47.562Z,4.21
2023-04-27T19:59:49.681Z,4.14
2023-04-27T20:02:54.009Z,4.06
2023-04-27T20:05:56.606Z,3.97
2023-04-27T20:08:59.065Z,3.88
2023-04-27T20:12:01.503Z,3.82
2023-04-27T20:15:05.484Z,3.72
2023-04-27T20:18:07.558Z,3.77
2023-04-27T20:21:09.610Z,3.74
2023-04-27T20:24:11.860Z,3.58
2023-04-27T20:27:14.036Z,3.50
2023-04-27T20:30:16.216Z,3.65
2023-04-27T20:33:18.550Z,3.60
2023-04-27T20:36:20.616Z,3.30
2023-04-27T20:39:22.813Z,3.55
2023-04-27T20:42:24.701Z,3.56
2023-04-27T20:45:26.812Z,3.52
2023-04-27T20:48:29.746Z,3.50
2023-04-27T20:51:33.148Z,3.44
2023-04-27T20:54:36.422Z,3.46
2023-04-27T20:57:38.549Z,3.43
2023-04-27T21:00:40.775Z,3.35
2023-04-27T21:03:46.748Z,3.24
2023-04-27T21:06:49.973Z,3.23
2023-04-27T21:09:52.008Z,3.16
2023-04-27T21:12:54.022Z,3.20
2023-04-27T21:15:56.223Z,3.26
2023-04-27T21:18:58.244Z,3.19
2023-04-27T21:22:00.258Z,3.16
2023-04-27T21:25:02.925Z,3.13
2023-04-27T21:28:05.119Z,3.20
2023-04-27T21:31:07.283Z,3.17
2023-04-27T21:34:09.318Z,3.11
2023-04-27T21:37:11.356Z,3.07
2023-04-27T21:40:13.539Z,3.04
2023-04-27T21:43:15.497Z,3.01
2023-04-27T21:46:17.512Z,2.97
2023-04-27T21:49:19.640Z,3.01
2023-04-27T21:52:21.987Z,2.97
2023-04-27T21:55:24.030Z,2.99
2023-04-27T21:58:26.333Z,2.96
2023-04-27T22:01:28.338Z,2.92
2023-04-27T22:04:31.149Z,2.96
2023-04-27T22:07:33.257Z,2.92
2023-04-27T22:10:35.274Z,2.92
2023-04-27T22:13:37.343Z,2.92
2023-04-27T22:16:39.346Z,2.85
2023-04-27T22:19:41.696Z,2.86
2023-04-27T22:22:43.924Z,2.20
2023-04-27T22:25:46.676Z,2.84
2023-04-27T22:28:48.685Z,2.86
2023-04-27T22:31:51.048Z,2.88
2023-04-27T22:34:53.105Z,2.85
2023-04-27T22:37:56.283Z,2.85
2023-04-27T22:40:58.336Z,2.88
2023-04-27T22:44:00.452Z,2.87
2023-04-27T22:47:04.572Z,2.89
2023-04-27T22:50:07.972Z,2.93
2023-04-27T22:53:09.986Z,2.99
2023-04-27T22:56:11.941Z,2.95
2023-04-27T22:59:13.950Z,2.95
2023-04-27T23:02:15.914Z,2.97
2023-04-27T23:05:17.975Z,2.90
2023-04-27T23:08:21.051Z,2.97
2023-04-27T23:11:23.978Z,3.02
2023-04-27T23:14:26.987Z,2.98
2023-04-27T23:17:31.993Z,2.96
2023-04-27T23:20:34.090Z,2.98
2023-04-27T23:23:36.090Z,2.94
2023-04-27T23:26:38.059Z,2.91
2023-04-27T23:29:40.065Z,2.89
2023-04-27T23:32:42.550Z,2.90
2023-04-27T23:35:44.539Z,2.91
2023-04-27T23:38:46.529Z,2.92
2023-04-27T23:41:48.542Z,2.85
2023-04-27T23:44:50.537Z,2.83
2023-04-27T23:47:52.647Z,2.74
2023-04-27T23:51:02.210Z,2.76
2023-04-27T23:54:04.372Z,2.69
2023-04-27T23:57:06.760Z,2.65
